sensor_id;sensor_type;location;lat;lon;timestamp;P1;durP1;ratioP1;P2;durP2;ratioP2
54328;SDS011;40710;51.120;13.136;2022-08-03T00:01:09;3.50;;;2.10;;
54328;SDS011;40710;51.120;13.136;2022-08-03T00:03:34;5.00;;;2.33;;
54328;SDS011;40710;51.120;13.136;2022-08-03T00:05:58;3.17;;;2.03;;
54328;SDS011;40710;51.120;13.136;2022-08-03T00:08:22;3.70;;;2.33;;
54328;SDS011;40710;51.120;13.136;2022-08-03T00:10:47;3.40;;;2.15;;
54328;SDS011;40710;51.120;13.136;2022-08-03T00:13:11;5.13;;;2.42;;
54328;SDS011;40710;51.120;13.136;2022-08-03T00:15:36;3.63;;;2.13;;
54328;SDS011;40710;51.120;13.136;2022-08-03T00:18:00;5.10;;;2.10;;
54328;SDS011;40710;51.120;13.136;2022-08-03T00:20:25;3.22;;;2.10;;
54328;SDS011;40710;51.120;13.136;2022-08-03T00:22:49;3.40;;;2.10;;
54328;SDS011;40710;51.120;13.136;2022-08-03T00:25:14;6.40;;;2.33;;
54328;SDS011;40710;51.120;13.136;2022-08-03T00:27:39;5.35;;;2.42;;
54328;SDS011;40710;51.120;13.136;2022-08-03T00:30:03;3.20;;;2.28;;
54328;SDS011;40710;51.120;13.136;2022-08-03T00:32:28;3.58;;;2.00;;
54328;SDS011;40710;51.120;13.136;2022-08-03T00:34:52;3.63;;;2.35;;
54328;SDS011;40710;51.120;13.136;2022-08-03T00:37:17;4.30;;;2.05;;
54328;SDS011;40710;51.120;13.136;2022-08-03T00:39:41;3.70;;;2.20;;
54328;SDS011;40710;51.120;13.136;2022-08-03T00:42:08;5.80;;;2.40;;
54328;SDS011;40710;51.120;13.136;2022-08-03T00:44:38;5.88;;;2.22;;
54328;SDS011;40710;51.120;13.136;2022-08-03T00:47:03;5.22;;;2.60;;
54328;SDS011;40710;51.120;13.136;2022-08-03T00:49:28;5.43;;;2.13;;
54328;SDS011;40710;51.120;13.136;2022-08-03T00:51:52;4.03;;;2.33;;
54328;SDS011;40710;51.120;13.136;2022-08-03T00:54:17;3.72;;;2.08;;
54328;SDS011;40710;51.120;13.136;2022-08-03T00:56:43;4.78;;;2.67;;
54328;SDS011;40710;51.120;13.136;2022-08-03T00:59:08;3.53;;;2.20;;
54328;SDS011;40710;51.120;13.136;2022-08-03T01:01:33;5.10;;;2.60;;
54328;SDS011;40710;51.120;13.136;2022-08-03T01:03:57;4.28;;;2.47;;
54328;SDS011;40710;51.120;13.136;2022-08-03T01:06:24;4.72;;;2.55;;
54328;SDS011;40710;51.120;13.136;2022-08-03T01:09:02;4.35;;;2.38;;
54328;SDS011;40710;51.120;13.136;2022-08-03T01:11:37;4.63;;;2.28;;
54328;SDS011;40710;51.120;13.136;2022-08-03T01:17:22;6.38;;;2.50;;
54328;SDS011;40710;51.120;13.136;2022-08-03T01:20:02;4.50;;;2.25;;
54328;SDS011;40710;51.120;13.136;2022-08-03T01:25:22;3.90;;;2.50;;
54328;SDS011;40710;51.120;13.136;2022-08-03T01:28:19;3.88;;;2.33;;
54328;SDS011;40710;51.120;13.136;2022-08-03T01:31:11;9.38;;;3.00;;
54328;SDS011;40710;51.120;13.136;2022-08-03T01:33:42;4.30;;;2.60;;
54328;SDS011;40710;51.120;13.136;2022-08-03T01:36:12;3.30;;;2.05;;
54328;SDS011;40710;51.120;13.136;2022-08-03T01:38:43;3.50;;;2.15;;
54328;SDS011;40710;51.120;13.136;2022-08-03T01:41:14;4.20;;;2.10;;
54328;SDS011;40710;51.120;13.136;2022-08-03T01:43:46;6.00;;;2.65;;
54328;SDS011;40710;51.120;13.136;2022-08-03T01:46:12;4.88;;;2.55;;
54328;SDS011;40710;51.120;13.136;2022-08-03T01:48:38;5.38;;;2.78;;
54328;SDS011;40710;51.120;13.136;2022-08-03T01:51:06;5.07;;;2.75;;
54328;SDS011;40710;51.120;13.136;2022-08-03T01:53:32;7.80;;;2.80;;
54328;SDS011;40710;51.120;13.136;2022-08-03T01:55:58;5.05;;;2.50;;
54328;SDS011;40710;51.120;13.136;2022-08-03T01:58:24;3.95;;;2.30;;
54328;SDS011;40710;51.120;13.136;2022-08-03T02:00:51;3.00;;;2.22;;
54328;SDS011;40710;51.120;13.136;2022-08-03T02:03:21;4.60;;;2.40;;
54328;SDS011;40710;51.120;13.136;2022-08-03T02:05:47;7.25;;;2.45;;
54328;SDS011;40710;51.120;13.136;2022-08-03T02:08:13;7.28;;;2.72;;
54328;SDS011;40710;51.120;13.136;2022-08-03T02:10:41;3.92;;;2.30;;
54328;SDS011;40710;51.120;13.136;2022-08-03T02:13:06;5.05;;;2.45;;
54328;SDS011;40710;51.120;13.136;2022-08-03T02:15:32;3.70;;;2.40;;
54328;SDS011;40710;51.120;13.136;2022-08-03T02:17:59;4.53;;;2.45;;
54328;SDS011;40710;51.120;13.136;2022-08-03T02:20:26;5.40;;;2.78;;
54328;SDS011;40710;51.120;13.136;2022-08-03T02:22:51;4.75;;;2.58;;
54328;SDS011;40710;51.120;13.136;2022-08-03T02:25:16;4.13;;;2.50;;
54328;SDS011;40710;51.120;13.136;2022-08-03T02:28:00;3.92;;;2.58;;
54328;SDS011;40710;51.120;13.136;2022-08-03T02:30:35;3.67;;;2.38;;
54328;SDS011;40710;51.120;13.136;2022-08-03T02:33:02;5.57;;;2.85;;
54328;SDS011;40710;51.120;13.136;2022-08-03T02:35:28;3.85;;;2.38;;
54328;SDS011;40710;51.120;13.136;2022-08-03T02:37:57;4.90;;;2.50;;
54328;SDS011;40710;51.120;13.136;2022-08-03T02:40:24;3.83;;;2.20;;
54328;SDS011;40710;51.120;13.136;2022-08-03T02:42:52;3.90;;;2.53;;
54328;SDS011;40710;51.120;13.136;2022-08-03T02:45:21;7.25;;;2.67;;
54328;SDS011;40710;51.120;13.136;2022-08-03T02:47:48;5.13;;;2.70;;
54328;SDS011;40710;51.120;13.136;2022-08-03T02:50:15;5.80;;;2.88;;
54328;SDS011;40710;51.120;13.136;2022-08-03T02:52:40;6.05;;;2.70;;
54328;SDS011;40710;51.120;13.136;2022-08-03T02:55:07;4.07;;;2.25;;
54328;SDS011;40710;51.120;13.136;2022-08-03T02:57:33;6.72;;;2.63;;
54328;SDS011;40710;51.120;13.136;2022-08-03T02:59:59;7.70;;;2.45;;
54328;SDS011;40710;51.120;13.136;2022-08-03T03:02:25;4.90;;;2.60;;
54328;SDS011;40710;51.120;13.136;2022-08-03T03:04:52;3.15;;;2.10;;
54328;SDS011;40710;51.120;13.136;2022-08-03T03:07:18;5.20;;;2.28;;
54328;SDS011;40710;51.120;13.136;2022-08-03T03:09:43;4.30;;;2.55;;
54328;SDS011;40710;51.120;13.136;2022-08-03T03:12:08;4.95;;;2.72;;
54328;SDS011;40710;51.120;13.136;2022-08-03T03:14:36;4.07;;;2.67;;
54328;SDS011;40710;51.120;13.136;2022-08-03T03:17:00;9.10;;;2.83;;
54328;SDS011;40710;51.120;13.136;2022-08-03T03:19:25;5.63;;;2.70;;
54328;SDS011;40710;51.120;13.136;2022-08-03T03:21:50;3.83;;;2.65;;
54328;SDS011;40710;51.120;13.136;2022-08-03T03:24:15;7.13;;;2.92;;
54328;SDS011;40710;51.120;13.136;2022-08-03T03:26:40;5.00;;;2.50;;
54328;SDS011;40710;51.120;13.136;2022-08-03T03:29:06;5.05;;;2.55;;
54328;SDS011;40710;51.120;13.136;2022-08-03T03:31:30;4.55;;;2.65;;
54328;SDS011;40710;51.120;13.136;2022-08-03T03:33:56;4.00;;;2.63;;
54328;SDS011;40710;51.120;13.136;2022-08-03T03:36:21;4.38;;;2.70;;
54328;SDS011;40710;51.120;13.136;2022-08-03T03:38:45;4.60;;;2.65;;
54328;SDS011;40710;51.120;13.136;2022-08-03T03:41:10;4.43;;;2.67;;
54328;SDS011;40710;51.120;13.136;2022-08-03T03:43:34;4.28;;;2.58;;
54328;SDS011;40710;51.120;13.136;2022-08-03T03:45:59;3.90;;;2.60;;
54328;SDS011;40710;51.120;13.136;2022-08-03T03:48:24;6.20;;;2.78;;
54328;SDS011;40710;51.120;13.136;2022-08-03T03:50:49;6.60;;;2.80;;
54328;SDS011;40710;51.120;13.136;2022-08-03T03:53:13;4.38;;;2.72;;
54328;SDS011;40710;51.120;13.136;2022-08-03T03:55:38;4.78;;;2.95;;
54328;SDS011;40710;51.120;13.136;2022-08-03T03:58:03;4.70;;;2.60;;
54328;SDS011;40710;51.120;13.136;2022-08-03T04:00:28;5.40;;;2.80;;
54328;SDS011;40710;51.120;13.136;2022-08-03T04:02:53;3.70;;;2.47;;
54328;SDS011;40710;51.120;13.136;2022-08-03T04:05:18;4.22;;;2.42;;
54328;SDS011;40710;51.120;13.136;2022-08-03T04:08:34;4.65;;;2.70;;
54328;SDS011;40710;51.120;13.136;2022-08-03T04:11:15;5.13;;;2.97;;
54328;SDS011;40710;51.120;13.136;2022-08-03T04:13:53;5.13;;;2.88;;
54328;SDS011;40710;51.120;13.136;2022-08-03T04:16:21;5.22;;;2.60;;
54328;SDS011;40710;51.120;13.136;2022-08-03T04:18:50;5.63;;;2.70;;
54328;SDS011;40710;51.120;13.136;2022-08-03T04:21:18;5.32;;;2.88;;
54328;SDS011;40710;51.120;13.136;2022-08-03T04:23:47;4.20;;;2.50;;
54328;SDS011;40710;51.120;13.136;2022-08-03T04:26:15;5.18;;;2.63;;
54328;SDS011;40710;51.120;13.136;2022-08-03T04:28:43;5.13;;;2.72;;
54328;SDS011;40710;51.120;13.136;2022-08-03T04:31:09;5.80;;;2.80;;
54328;SDS011;40710;51.120;13.136;2022-08-03T04:33:34;5.20;;;2.83;;
54328;SDS011;40710;51.120;13.136;2022-08-03T04:36:02;4.53;;;2.60;;
54328;SDS011;40710;51.120;13.136;2022-08-03T04:38:35;5.32;;;3.10;;
54328;SDS011;40710;51.120;13.136;2022-08-03T04:41:02;3.40;;;2.38;;
54328;SDS011;40710;51.120;13.136;2022-08-03T04:43:27;4.43;;;2.75;;
54328;SDS011;40710;51.120;13.136;2022-08-03T04:45:54;7.00;;;2.75;;
54328;SDS011;40710;51.120;13.136;2022-08-03T04:48:20;4.68;;;2.58;;
54328;SDS011;40710;51.120;13.136;2022-08-03T04:50:45;4.45;;;2.65;;
54328;SDS011;40710;51.120;13.136;2022-08-03T04:53:10;3.55;;;2.72;;
54328;SDS011;40710;51.120;13.136;2022-08-03T04:55:34;4.07;;;2.97;;
54328;SDS011;40710;51.120;13.136;2022-08-03T04:57:59;4.50;;;2.78;;
54328;SDS011;40710;51.120;13.136;2022-08-03T05:00:26;4.68;;;2.90;;
54328;SDS011;40710;51.120;13.136;2022-08-03T05:02:51;4.15;;;2.70;;
54328;SDS011;40710;51.120;13.136;2022-08-03T05:05:16;4.88;;;2.78;;
54328;SDS011;40710;51.120;13.136;2022-08-03T05:07:41;4.10;;;2.78;;
54328;SDS011;40710;51.120;13.136;2022-08-03T05:10:06;4.28;;;2.47;;
54328;SDS011;40710;51.120;13.136;2022-08-03T05:12:32;4.30;;;2.90;;
54328;SDS011;40710;51.120;13.136;2022-08-03T05:14:57;4.50;;;2.80;;
54328;SDS011;40710;51.120;13.136;2022-08-03T05:17:21;3.97;;;2.55;;
54328;SDS011;40710;51.120;13.136;2022-08-03T05:19:45;3.90;;;2.53;;
54328;SDS011;40710;51.120;13.136;2022-08-03T05:22:10;4.18;;;2.55;;
54328;SDS011;40710;51.120;13.136;2022-08-03T05:24:34;5.57;;;2.90;;
54328;SDS011;40710;51.120;13.136;2022-08-03T05:26:58;4.22;;;2.78;;
54328;SDS011;40710;51.120;13.136;2022-08-03T05:29:23;4.95;;;2.97;;
54328;SDS011;40710;51.120;13.136;2022-08-03T05:31:47;5.07;;;2.90;;
54328;SDS011;40710;51.120;13.136;2022-08-03T05:34:11;5.20;;;2.85;;
54328;SDS011;40710;51.120;13.136;2022-08-03T05:36:36;5.80;;;2.67;;
54328;SDS011;40710;51.120;13.136;2022-08-03T05:39:00;4.32;;;2.70;;
54328;SDS011;40710;51.120;13.136;2022-08-03T05:41:25;3.97;;;2.70;;
54328;SDS011;40710;51.120;13.136;2022-08-03T05:43:50;4.20;;;2.60;;
54328;SDS011;40710;51.120;13.136;2022-08-03T05:46:15;5.10;;;2.63;;
54328;SDS011;40710;51.120;13.136;2022-08-03T05:48:40;4.25;;;2.60;;
54328;SDS011;40710;51.120;13.136;2022-08-03T05:51:05;7.25;;;2.70;;
54328;SDS011;40710;51.120;13.136;2022-08-03T05:53:34;3.58;;;2.45;;
54328;SDS011;40710;51.120;13.136;2022-08-03T05:55:58;5.03;;;2.70;;
54328;SDS011;40710;51.120;13.136;2022-08-03T05:58:22;3.85;;;2.63;;
54328;SDS011;40710;51.120;13.136;2022-08-03T06:00:47;3.90;;;2.80;;
54328;SDS011;40710;51.120;13.136;2022-08-03T06:03:11;4.95;;;2.63;;
54328;SDS011;40710;51.120;13.136;2022-08-03T06:05:35;3.38;;;2.47;;
54328;SDS011;40710;51.120;13.136;2022-08-03T06:08:00;5.20;;;2.50;;
54328;SDS011;40710;51.120;13.136;2022-08-03T06:10:25;3.75;;;2.40;;
54328;SDS011;40710;51.120;13.136;2022-08-03T06:12:49;3.83;;;2.50;;
54328;SDS011;40710;51.120;13.136;2022-08-03T06:15:14;3.35;;;2.35;;
54328;SDS011;40710;51.120;13.136;2022-08-03T06:17:45;5.18;;;2.50;;
54328;SDS011;40710;51.120;13.136;2022-08-03T06:20:11;5.15;;;2.75;;
54328;SDS011;40710;51.120;13.136;2022-08-03T06:22:35;5.15;;;2.58;;
54328;SDS011;40710;51.120;13.136;2022-08-03T06:25:00;6.35;;;2.45;;
54328;SDS011;40710;51.120;13.136;2022-08-03T06:27:24;3.70;;;2.30;;
54328;SDS011;40710;51.120;13.136;2022-08-03T06:29:49;4.55;;;2.60;;
54328;SDS011;40710;51.120;13.136;2022-08-03T06:32:14;3.65;;;2.35;;
54328;SDS011;40710;51.120;13.136;2022-08-03T06:34:39;5.57;;;2.60;;
54328;SDS011;40710;51.120;13.136;2022-08-03T06:37:03;3.97;;;2.53;;
54328;SDS011;40710;51.120;13.136;2022-08-03T06:39:28;4.43;;;2.50;;
54328;SDS011;40710;51.120;13.136;2022-08-03T06:41:53;5.53;;;2.50;;
54328;SDS011;40710;51.120;13.136;2022-08-03T06:44:17;5.28;;;2.45;;
54328;SDS011;40710;51.120;13.136;2022-08-03T06:46:41;4.65;;;2.25;;
54328;SDS011;40710;51.120;13.136;2022-08-03T06:49:06;5.10;;;1.95;;
54328;SDS011;40710;51.120;13.136;2022-08-03T06:51:30;3.33;;;2.10;;
54328;SDS011;40710;51.120;13.136;2022-08-03T06:53:55;4.45;;;2.10;;
54328;SDS011;40710;51.120;13.136;2022-08-03T06:56:19;5.65;;;2.63;;
54328;SDS011;40710;51.120;13.136;2022-08-03T06:58:43;4.65;;;2.33;;
54328;SDS011;40710;51.120;13.136;2022-08-03T07:01:09;4.18;;;2.35;;
54328;SDS011;40710;51.120;13.136;2022-08-03T07:03:34;2.75;;;1.83;;
54328;SDS011;40710;51.120;13.136;2022-08-03T07:05:58;2.33;;;1.52;;
54328;SDS011;40710;51.120;13.136;2022-08-03T07:08:23;5.10;;;2.08;;
54328;SDS011;40710;51.120;13.136;2022-08-03T07:10:47;2.70;;;1.90;;
54328;SDS011;40710;51.120;13.136;2022-08-03T07:13:12;4.05;;;2.00;;
54328;SDS011;40710;51.120;13.136;2022-08-03T07:15:36;3.17;;;1.88;;
54328;SDS011;40710;51.120;13.136;2022-08-03T07:18:01;5.35;;;1.95;;
54328;SDS011;40710;51.120;13.136;2022-08-03T07:20:25;5.50;;;1.90;;
54328;SDS011;40710;51.120;13.136;2022-08-03T07:22:49;3.17;;;1.98;;
54328;SDS011;40710;51.120;13.136;2022-08-03T07:25:14;4.57;;;1.60;;
54328;SDS011;40710;51.120;13.136;2022-08-03T07:27:41;4.43;;;1.65;;
54328;SDS011;40710;51.120;13.136;2022-08-03T07:30:06;6.38;;;1.80;;
54328;SDS011;40710;51.120;13.136;2022-08-03T07:32:32;2.65;;;1.63;;
54328;SDS011;40710;51.120;13.136;2022-08-03T07:34:56;4.05;;;1.85;;
54328;SDS011;40710;51.120;13.136;2022-08-03T07:37:21;4.30;;;1.85;;
54328;SDS011;40710;51.120;13.136;2022-08-03T07:39:45;1.65;;;1.42;;
54328;SDS011;40710;51.120;13.136;2022-08-03T07:42:10;3.53;;;1.60;;
54328;SDS011;40710;51.120;13.136;2022-08-03T07:44:34;2.88;;;1.70;;
54328;SDS011;40710;51.120;13.136;2022-08-03T07:46:59;3.17;;;1.70;;
54328;SDS011;40710;51.120;13.136;2022-08-03T07:49:23;3.13;;;1.90;;
54328;SDS011;40710;51.120;13.136;2022-08-03T07:51:47;3.13;;;1.50;;
54328;SDS011;40710;51.120;13.136;2022-08-03T07:54:34;3.42;;;1.45;;
54328;SDS011;40710;51.120;13.136;2022-08-03T07:56:59;2.03;;;1.25;;
54328;SDS011;40710;51.120;13.136;2022-08-03T07:59:24;2.75;;;1.40;;
54328;SDS011;40710;51.120;13.136;2022-08-03T08:01:48;3.55;;;1.58;;
54328;SDS011;40710;51.120;13.136;2022-08-03T08:04:16;9.43;;;1.80;;
54328;SDS011;40710;51.120;13.136;2022-08-03T08:06:40;1.95;;;1.33;;
54328;SDS011;40710;51.120;13.136;2022-08-03T08:09:04;2.10;;;1.33;;
54328;SDS011;40710;51.120;13.136;2022-08-03T08:11:29;2.15;;;0.90;;
54328;SDS011;40710;51.120;13.136;2022-08-03T08:13:53;1.52;;;0.82;;
54328;SDS011;40710;51.120;13.136;2022-08-03T08:16:17;1.05;;;0.90;;
54328;SDS011;40710;51.120;13.136;2022-08-03T08:18:42;2.78;;;1.10;;
54328;SDS011;40710;51.120;13.136;2022-08-03T08:21:06;2.85;;;1.00;;
54328;SDS011;40710;51.120;13.136;2022-08-03T08:23:30;1.60;;;1.10;;
54328;SDS011;40710;51.120;13.136;2022-08-03T08:25:55;1.45;;;1.10;;
54328;SDS011;40710;51.120;13.136;2022-08-03T08:28:20;3.97;;;1.88;;
54328;SDS011;40710;51.120;13.136;2022-08-03T08:30:44;1.70;;;1.02;;
54328;SDS011;40710;51.120;13.136;2022-08-03T08:33:09;3.85;;;1.20;;
54328;SDS011;40710;51.120;13.136;2022-08-03T08:35:34;1.85;;;1.02;;
54328;SDS011;40710;51.120;13.136;2022-08-03T08:37:58;2.95;;;0.90;;
54328;SDS011;40710;51.120;13.136;2022-08-03T08:40:23;4.30;;;0.90;;
54328;SDS011;40710;51.120;13.136;2022-08-03T08:42:48;1.02;;;0.85;;
54328;SDS011;40710;51.120;13.136;2022-08-03T08:45:12;1.38;;;0.90;;
54328;SDS011;40710;51.120;13.136;2022-08-03T08:47:39;1.55;;;1.00;;
54328;SDS011;40710;51.120;13.136;2022-08-03T08:50:07;2.28;;;1.25;;
54328;SDS011;40710;51.120;13.136;2022-08-03T08:52:32;1.83;;;0.93;;
54328;SDS011;40710;51.120;13.136;2022-08-03T08:54:58;1.60;;;1.13;;
54328;SDS011;40710;51.120;13.136;2022-08-03T08:57:28;1.15;;;0.90;;
54328;SDS011;40710;51.120;13.136;2022-08-03T08:59:54;1.85;;;1.20;;
54328;SDS011;40710;51.120;13.136;2022-08-03T09:02:20;2.28;;;1.10;;
54328;SDS011;40710;51.120;13.136;2022-08-03T09:04:44;1.75;;;0.98;;
54328;SDS011;40710;51.120;13.136;2022-08-03T09:07:11;5.47;;;1.45;;
54328;SDS011;40710;51.120;13.136;2022-08-03T09:09:36;3.53;;;1.40;;
54328;SDS011;40710;51.120;13.136;2022-08-03T09:12:00;1.35;;;0.93;;
54328;SDS011;40710;51.120;13.136;2022-08-03T09:14:24;2.47;;;1.10;;
54328;SDS011;40710;51.120;13.136;2022-08-03T09:16:58;1.77;;;1.17;;
54328;SDS011;40710;51.120;13.136;2022-08-03T09:19:28;1.73;;;1.13;;
54328;SDS011;40710;51.120;13.136;2022-08-03T09:22:06;3.38;;;1.20;;
54328;SDS011;40710;51.120;13.136;2022-08-03T09:24:32;1.52;;;1.10;;
54328;SDS011;40710;51.120;13.136;2022-08-03T09:26:56;6.25;;;0.90;;
54328;SDS011;40710;51.120;13.136;2022-08-03T09:29:21;2.30;;;1.10;;
54328;SDS011;40710;51.120;13.136;2022-08-03T09:31:45;2.55;;;1.10;;
54328;SDS011;40710;51.120;13.136;2022-08-03T09:34:12;1.83;;;1.05;;
54328;SDS011;40710;51.120;13.136;2022-08-03T09:39:17;3.85;;;0.98;;
54328;SDS011;40710;51.120;13.136;2022-08-03T09:41:44;1.48;;;0.95;;
54328;SDS011;40710;51.120;13.136;2022-08-03T09:44:10;1.60;;;1.00;;
54328;SDS011;40710;51.120;13.136;2022-08-03T09:46:49;2.03;;;1.20;;
54328;SDS011;40710;51.120;13.136;2022-08-03T09:49:15;2.03;;;0.90;;
54328;SDS011;40710;51.120;13.136;2022-08-03T09:51:40;2.00;;;1.15;;
54328;SDS011;40710;51.120;13.136;2022-08-03T09:54:05;3.00;;;1.13;;
54328;SDS011;40710;51.120;13.136;2022-08-03T09:56:37;3.35;;;1.05;;
54328;SDS011;40710;51.120;13.136;2022-08-03T09:59:07;1.10;;;0.82;;
54328;SDS011;40710;51.120;13.136;2022-08-03T10:01:32;2.03;;;1.17;;
54328;SDS011;40710;51.120;13.136;2022-08-03T10:03:58;2.47;;;1.20;;
54328;SDS011;40710;51.120;13.136;2022-08-03T10:06:23;1.88;;;1.10;;
54328;SDS011;40710;51.120;13.136;2022-08-03T10:09:04;1.20;;;1.00;;
54328;SDS011;40710;51.120;13.136;2022-08-03T10:11:33;2.10;;;1.13;;
54328;SDS011;40710;51.120;13.136;2022-08-03T10:13:58;2.67;;;1.23;;
54328;SDS011;40710;51.120;13.136;2022-08-03T10:16:23;1.05;;;0.90;;
54328;SDS011;40710;51.120;13.136;2022-08-03T10:18:47;4.53;;;1.10;;
54328;SDS011;40710;51.120;13.136;2022-08-03T10:21:11;1.75;;;1.02;;
54328;SDS011;40710;51.120;13.136;2022-08-03T10:23:40;2.28;;;0.95;;
54328;SDS011;40710;51.120;13.136;2022-08-03T10:26:06;1.05;;;0.85;;
54328;SDS011;40710;51.120;13.136;2022-08-03T10:28:33;1.08;;;0.90;;
54328;SDS011;40710;51.120;13.136;2022-08-03T10:31:00;2.05;;;1.00;;
54328;SDS011;40710;51.120;13.136;2022-08-03T10:33:27;1.85;;;1.10;;
54328;SDS011;40710;51.120;13.136;2022-08-03T10:36:05;1.85;;;0.80;;
54328;SDS011;40710;51.120;13.136;2022-08-03T10:38:39;2.13;;;1.33;;
54328;SDS011;40710;51.120;13.136;2022-08-03T10:41:09;3.78;;;1.30;;
54328;SDS011;40710;51.120;13.136;2022-08-03T10:46:19;1.60;;;0.98;;
54328;SDS011;40710;51.120;13.136;2022-08-03T10:48:45;7.72;;;4.95;;
54328;SDS011;40710;51.120;13.136;2022-08-03T10:51:10;5.10;;;3.10;;
54328;SDS011;40710;51.120;13.136;2022-08-03T10:53:36;3.05;;;1.35;;
54328;SDS011;40710;51.120;13.136;2022-08-03T10:56:02;2.22;;;0.93;;
54328;SDS011;40710;51.120;13.136;2022-08-03T10:58:46;1.73;;;0.90;;
54328;SDS011;40710;51.120;13.136;2022-08-03T11:01:15;2.75;;;1.30;;
54328;SDS011;40710;51.120;13.136;2022-08-03T11:06:17;4.20;;;1.15;;
54328;SDS011;40710;51.120;13.136;2022-08-03T11:08:44;3.53;;;1.00;;
54328;SDS011;40710;51.120;13.136;2022-08-03T11:13:39;1.05;;;0.93;;
54328;SDS011;40710;51.120;13.136;2022-08-03T11:16:20;2.70;;;0.80;;
54328;SDS011;40710;51.120;13.136;2022-08-03T11:18:56;1.75;;;1.20;;
54328;SDS011;40710;51.120;13.136;2022-08-03T11:29:37;7.47;;;6.68;;
54328;SDS011;40710;51.120;13.136;2022-08-03T11:33:02;5.28;;;2.42;;
54328;SDS011;40710;51.120;13.136;2022-08-03T11:35:11;0.70;;;0.70;;
54328;SDS011;40710;51.120;13.136;2022-08-03T11:43:02;2.38;;;0.93;;
54328;SDS011;40710;51.120;13.136;2022-08-03T11:45:27;0.82;;;0.70;;
54328;SDS011;40710;51.120;13.136;2022-08-03T11:47:53;3.63;;;0.90;;
54328;SDS011;40710;51.120;13.136;2022-08-03T11:50:18;0.95;;;0.82;;
54328;SDS011;40710;51.120;13.136;2022-08-03T11:52:44;0.70;;;0.70;;
54328;SDS011;40710;51.120;13.136;2022-08-03T11:55:09;1.10;;;0.80;;
54328;SDS011;40710;51.120;13.136;2022-08-03T11:57:35;1.35;;;0.70;;
54328;SDS011;40710;51.120;13.136;2022-08-03T11:59:59;1.30;;;0.73;;
54328;SDS011;40710;51.120;13.136;2022-08-03T12:02:24;1.67;;;0.90;;
54328;SDS011;40710;51.120;13.136;2022-08-03T12:04:49;1.33;;;0.80;;
54328;SDS011;40710;51.120;13.136;2022-08-03T12:07:14;0.70;;;0.70;;
54328;SDS011;40710;51.120;13.136;2022-08-03T12:09:38;1.75;;;0.70;;
54328;SDS011;40710;51.120;13.136;2022-08-03T12:12:04;1.60;;;0.90;;
54328;SDS011;40710;51.120;13.136;2022-08-03T12:14:29;2.17;;;0.75;;
54328;SDS011;40710;51.120;13.136;2022-08-03T12:16:54;1.00;;;0.65;;
54328;SDS011;40710;51.120;13.136;2022-08-03T12:19:18;7.28;;;1.33;;
54328;SDS011;40710;51.120;13.136;2022-08-03T12:21:46;1.88;;;1.00;;
54328;SDS011;40710;51.120;13.136;2022-08-03T12:24:14;1.25;;;0.77;;
54328;SDS011;40710;51.120;13.136;2022-08-03T12:26:43;1.98;;;1.00;;
54328;SDS011;40710;51.120;13.136;2022-08-03T12:29:15;1.73;;;0.80;;
54328;SDS011;40710;51.120;13.136;2022-08-03T12:31:41;2.88;;;0.80;;
54328;SDS011;40710;51.120;13.136;2022-08-03T12:34:05;1.10;;;0.80;;
54328;SDS011;40710;51.120;13.136;2022-08-03T12:36:32;2.22;;;0.80;;
54328;SDS011;40710;51.120;13.136;2022-08-03T12:38:59;1.90;;;0.77;;
54328;SDS011;40710;51.120;13.136;2022-08-03T12:41:35;2.13;;;1.00;;
54328;SDS011;40710;51.120;13.136;2022-08-03T12:44:02;2.28;;;0.80;;
54328;SDS011;40710;51.120;13.136;2022-08-03T12:46:29;1.30;;;0.82;;
54328;SDS011;40710;51.120;13.136;2022-08-03T12:49:09;0.65;;;0.63;;
54328;SDS011;40710;51.120;13.136;2022-08-03T12:51:36;1.05;;;0.65;;
54328;SDS011;40710;51.120;13.136;2022-08-03T12:54:28;3.33;;;2.38;;
54328;SDS011;40710;51.120;13.136;2022-08-03T12:56:59;6.72;;;2.45;;
54328;SDS011;40710;51.120;13.136;2022-08-03T12:59:32;2.25;;;1.02;;
54328;SDS011;40710;51.120;13.136;2022-08-03T13:01:58;1.95;;;0.80;;
54328;SDS011;40710;51.120;13.136;2022-08-03T13:04:26;1.40;;;0.90;;
54328;SDS011;40710;51.120;13.136;2022-08-03T13:09:24;2.10;;;0.98;;
54328;SDS011;40710;51.120;13.136;2022-08-03T13:12:08;1.30;;;0.80;;
54328;SDS011;40710;51.120;13.136;2022-08-03T13:14:34;2.83;;;0.95;;
54328;SDS011;40710;51.120;13.136;2022-08-03T13:17:00;1.10;;;0.70;;
54328;SDS011;40710;51.120;13.136;2022-08-03T13:19:24;1.77;;;0.90;;
54328;SDS011;40710;51.120;13.136;2022-08-03T13:21:48;3.55;;;0.90;;
54328;SDS011;40710;51.120;13.136;2022-08-03T13:24:13;1.13;;;0.82;;
54328;SDS011;40710;51.120;13.136;2022-08-03T13:26:37;1.70;;;0.90;;
54328;SDS011;40710;51.120;13.136;2022-08-03T13:29:02;2.40;;;0.95;;
54328;SDS011;40710;51.120;13.136;2022-08-03T13:31:26;1.25;;;0.80;;
54328;SDS011;40710;51.120;13.136;2022-08-03T13:33:50;2.10;;;0.93;;
54328;SDS011;40710;51.120;13.136;2022-08-03T13:36:15;2.75;;;0.80;;
54328;SDS011;40710;51.120;13.136;2022-08-03T13:38:40;0.95;;;0.70;;
54328;SDS011;40710;51.120;13.136;2022-08-03T13:41:04;2.88;;;0.80;;
54328;SDS011;40710;51.120;13.136;2022-08-03T13:43:29;1.45;;;0.75;;
54328;SDS011;40710;51.120;13.136;2022-08-03T13:45:53;1.48;;;0.93;;
54328;SDS011;40710;51.120;13.136;2022-08-03T13:48:18;1.30;;;0.73;;
54328;SDS011;40710;51.120;13.136;2022-08-03T13:50:42;3.53;;;1.20;;
54328;SDS011;40710;51.120;13.136;2022-08-03T13:53:06;1.10;;;0.80;;
54328;SDS011;40710;51.120;13.136;2022-08-03T13:55:31;2.60;;;0.75;;
54328;SDS011;40710;51.120;13.136;2022-08-03T13:57:55;1.60;;;0.80;;
54328;SDS011;40710;51.120;13.136;2022-08-03T14:00:19;1.55;;;0.80;;
54328;SDS011;40710;51.120;13.136;2022-08-03T14:02:49;1.80;;;0.90;;
54328;SDS011;40710;51.120;13.136;2022-08-03T14:05:13;4.57;;;3.17;;
54328;SDS011;40710;51.120;13.136;2022-08-03T14:07:37;4.78;;;3.13;;
54328;SDS011;40710;51.120;13.136;2022-08-03T14:10:02;0.88;;;0.80;;
54328;SDS011;40710;51.120;13.136;2022-08-03T14:12:27;1.90;;;0.70;;
54328;SDS011;40710;51.120;13.136;2022-08-03T14:14:51;0.90;;;0.70;;
54328;SDS011;40710;51.120;13.136;2022-08-03T14:17:15;1.33;;;0.80;;
54328;SDS011;40710;51.120;13.136;2022-08-03T14:19:40;1.48;;;0.73;;
54328;SDS011;40710;51.120;13.136;2022-08-03T14:22:04;1.13;;;0.70;;
54328;SDS011;40710;51.120;13.136;2022-08-03T14:24:28;2.67;;;0.80;;
54328;SDS011;40710;51.120;13.136;2022-08-03T14:26:53;1.70;;;0.77;;
54328;SDS011;40710;51.120;13.136;2022-08-03T14:29:17;1.30;;;0.82;;
54328;SDS011;40710;51.120;13.136;2022-08-03T14:31:41;1.20;;;0.80;;
54328;SDS011;40710;51.120;13.136;2022-08-03T14:34:06;1.15;;;0.70;;
54328;SDS011;40710;51.120;13.136;2022-08-03T14:36:30;0.82;;;0.80;;
54328;SDS011;40710;51.120;13.136;2022-08-03T14:38:55;1.13;;;0.80;;
54328;SDS011;40710;51.120;13.136;2022-08-03T14:41:19;4.38;;;0.82;;
54328;SDS011;40710;51.120;13.136;2022-08-03T14:43:43;4.03;;;1.00;;
54328;SDS011;40710;51.120;13.136;2022-08-03T14:46:08;2.47;;;0.90;;
54328;SDS011;40710;51.120;13.136;2022-08-03T14:48:33;3.40;;;0.93;;
54328;SDS011;40710;51.120;13.136;2022-08-03T14:50:57;3.15;;;1.02;;
54328;SDS011;40710;51.120;13.136;2022-08-03T14:53:21;1.00;;;0.90;;
54328;SDS011;40710;51.120;13.136;2022-08-03T14:55:46;1.15;;;0.82;;
54328;SDS011;40710;51.120;13.136;2022-08-03T14:58:12;1.40;;;0.70;;
54328;SDS011;40710;51.120;13.136;2022-08-03T15:00:36;1.50;;;0.90;;
54328;SDS011;40710;51.120;13.136;2022-08-03T15:03:01;0.80;;;0.70;;